createdAt,value
2023-06-10T00:00:45.439Z,47
2023-06-10T00:03:16.293Z,46
2023-06-10T00:05:46.802Z,49
2023-06-10T00:08:17.378Z,50
2023-06-10T00:10:47.854Z,60
2023-06-10T00:13:18.505Z,56
2023-06-10T00:15:49.206Z,70
2023-06-10T00:18:19.969Z,69
2023-06-10T00:20:50.846Z,63
2023-06-10T00:23:22.050Z,49
2023-06-10T00:25:52.508Z,56
2023-06-10T00:28:23.341Z,53
2023-06-10T00:30:54.523Z,55
2023-06-10T00:33:25.166Z,48
2023-06-10T00:35:54.254Z,52
2023-06-10T00:38:25.012Z,48
2023-06-10T00:40:55.801Z,49
2023-06-10T00:43:26.408Z,48
2023-06-10T00:45:58.172Z,44
2023-06-10T00:48:28.666Z,49
2023-06-10T00:51:02.698Z,44
2023-06-10T00:53:33.727Z,41
2023-06-10T00:56:04.212Z,48
2023-06-10T00:58:35.262Z,45
2023-06-10T01:01:06.297Z,44
2023-06-10T01:03:37.201Z,42
2023-06-10T01:06:07.882Z,44
2023-06-10T01:08:38.625Z,44
2023-06-10T01:11:09.090Z,46
2023-06-10T01:13:39.321Z,43
2023-06-10T01:16:10.531Z,45
2023-06-10T01:18:41.274Z,43
2023-06-10T01:21:12.281Z,48
2023-06-10T01:23:43.121Z,49
2023-06-10T01:26:13.767Z,44
2023-06-10T01:28:44.948Z,46
2023-06-10T01:31:15.810Z,44
2023-06-10T01:33:46.475Z,43
2023-06-10T01:36:16.980Z,48
2023-06-10T01:38:47.636Z,44
2023-06-10T01:41:18.428Z,44
2023-06-10T01:43:48.976Z,44
2023-06-10T01:46:20.042Z,48
2023-06-10T01:48:50.711Z,47
2023-06-10T01:51:22.020Z,49
2023-06-10T01:53:52.864Z,48
2023-06-10T01:56:23.506Z,48
2023-06-10T01:58:54.502Z,44
2023-06-10T02:01:25.299Z,49
2023-06-10T02:03:55.905Z,49
2023-06-10T02:06:26.341Z,42
2023-06-10T02:08:56.734Z,45
2023-06-10T02:11:27.453Z,43
2023-06-10T02:13:57.804Z,47
2023-06-10T02:16:28.421Z,45
2023-06-10T02:18:59.020Z,44
2023-06-10T02:21:30.050Z,50
2023-06-10T02:24:01.326Z,52
2023-06-10T02:26:32.101Z,48
2023-06-10T02:29:02.810Z,47
2023-06-10T02:31:34.191Z,53
2023-06-10T02:34:05.046Z,45
2023-06-10T02:36:35.464Z,47
2023-06-10T02:39:06.450Z,48
2023-06-10T02:41:37.173Z,43
2023-06-10T02:44:07.991Z,44
2023-06-10T02:46:39.038Z,44
2023-06-10T02:49:09.904Z,51
2023-06-10T02:51:40.549Z,48
2023-06-10T02:54:11.689Z,44
2023-06-10T02:56:41.982Z,52
2023-06-10T02:59:12.900Z,52
2023-06-10T03:01:43.703Z,47
2023-06-10T03:04:15.161Z,52
2023-06-10T03:06:46.220Z,48
2023-06-10T03:09:17.216Z,52
2023-06-10T03:11:47.686Z,48
2023-06-10T03:14:18.685Z,51
2023-06-10T03:16:50.135Z,48
2023-06-10T03:19:21.238Z,48
2023-06-10T03:21:52.410Z,56
2023-06-10T03:24:23.720Z,51
2023-06-10T03:26:54.594Z,49
2023-06-10T03:29:25.352Z,48
2023-06-10T03:31:56.002Z,44
2023-06-10T03:34:26.668Z,48
2023-06-10T03:36:57.594Z,48
2023-06-10T03:39:28.606Z,45
2023-06-10T03:41:59.288Z,49
2023-06-10T03:44:30.122Z,52
2023-06-10T03:47:00.868Z,51
2023-06-10T03:49:31.777Z,57
2023-06-10T03:52:02.044Z,48
2023-06-10T03:54:33.414Z,52
2023-06-10T03:57:04.340Z,49
2023-06-10T03:59:34.947Z,49
2023-06-10T04:02:06.886Z,46
2023-06-10T04:04:37.950Z,47
2023-06-10T04:07:08.678Z,48
2023-06-10T04:09:39.656Z,46
2023-06-10T04:12:10.502Z,51
2023-06-10T04:14:40.971Z,48
2023-06-10T04:17:11.971Z,52
2023-06-10T04:19:43.320Z,52
2023-06-10T04:22:13.890Z,53
2023-06-10T04:24:44.582Z,52
2023-06-10T04:27:15.271Z,60
2023-06-10T04:29:46.039Z,44
2023-06-10T04:32:16.830Z,48
2023-06-10T04:34:47.608Z,48
2023-06-10T04:37:16.812Z,52
2023-06-10T04:39:47.216Z,54
2023-06-10T04:42:18.066Z,54
2023-06-10T04:44:48.911Z,52
2023-06-10T04:47:20.095Z,55
2023-06-10T04:49:57.225Z,52
2023-06-10T04:52:29.858Z,52
2023-06-10T04:55:07.204Z,56
2023-06-10T04:57:37.499Z,54
2023-06-10T05:00:08.316Z,53
2023-06-10T05:02:38.735Z,53
2023-06-10T05:05:09.658Z,49
2023-06-10T05:07:40.502Z,48
2023-06-10T05:10:12.059Z,54
2023-06-10T05:12:42.989Z,47
2023-06-10T05:15:13.816Z,51
2023-06-10T05:17:45.343Z,61
2023-06-10T05:20:16.798Z,61
2023-06-10T05:22:47.300Z,57
2023-06-10T05:25:17.952Z,56
2023-06-10T05:27:58.929Z,72
2023-06-10T05:30:38.391Z,35
2023-06-10T05:33:10.292Z,54
2023-06-10T05:35:42.023Z,28
2023-06-10T05:38:14.561Z,25
2023-06-10T05:40:45.792Z,32
2023-06-10T05:43:16.738Z,28
2023-06-10T05:45:47.637Z,31
2023-06-10T05:48:18.703Z,33
2023-06-10T05:50:59.884Z,48
2023-06-10T05:53:29.822Z,53
2023-06-10T05:55:59.930Z,38
2023-06-10T05:58:31.823Z,25
2023-06-10T06:01:02.832Z,28
2023-06-10T06:03:38.043Z,20
2023-06-10T06:06:09.153Z,21
2023-06-10T06:08:40.140Z,25
2023-06-10T06:11:11.117Z,31
2023-06-10T06:13:42.919Z,28
2023-06-10T06:16:24.084Z,24
2023-06-10T06:19:02.303Z,33
2023-06-10T06:21:36.442Z,33
2023-06-10T06:24:08.213Z,28
2023-06-10T06:26:39.092Z,29
2023-06-10T06:29:13.445Z,24
2023-06-10T06:31:45.846Z,50
2023-06-10T06:34:17.929Z,56
2023-06-10T06:36:49.716Z,50
2023-06-10T06:39:20.424Z,36
2023-06-10T06:41:51.026Z,38
2023-06-10T06:44:21.803Z,33
2023-06-10T06:46:53.928Z,27
2023-06-10T06:49:24.374Z,23
2023-06-10T06:51:54.777Z,24
2023-06-10T06:54:26.536Z,24
2023-06-10T06:56:55.718Z,22
2023-06-10T06:59:26.727Z,23
2023-06-10T07:01:57.179Z,19
2023-06-10T07:04:27.737Z,16
2023-06-10T07:06:58.451Z,15
2023-06-10T07:09:29.168Z,20
2023-06-10T07:11:59.851Z,19
2023-06-10T07:14:30.262Z,17
2023-06-10T07:17:01.351Z,24
2023-06-10T07:19:32.404Z,20
2023-06-10T07:22:04.095Z,23
2023-06-10T07:24:35.122Z,17
2023-06-10T07:27:05.894Z,56
2023-06-10T07:29:36.503Z,39
2023-06-10T07:32:06.809Z,23
2023-06-10T07:34:37.881Z,18
2023-06-10T07:37:08.432Z,19
2023-06-10T07:39:40.318Z,17
2023-06-10T07:42:10.808Z,19
2023-06-10T07:44:42.308Z,16
2023-06-10T07:47:13.101Z,21
2023-06-10T07:49:43.987Z,20
2023-06-10T07:52:13.039Z,22
2023-06-10T07:54:43.432Z,23
2023-06-10T07:57:14.464Z,19
2023-06-10T07:59:46.144Z,17
2023-06-10T08:02:16.930Z,17
2023-06-10T08:04:54.732Z,8
2023-06-10T08:07:26.858Z,16
2023-06-10T08:10:02.536Z,12
2023-06-10T08:12:36.362Z,16
2023-06-10T08:15:10.854Z,20
2023-06-10T08:17:42.483Z,21
2023-06-10T08:20:13.631Z,21
2023-06-10T08:22:44.254Z,20
2023-06-10T08:25:14.770Z,23
2023-06-10T08:27:45.182Z,21
2023-06-10T08:30:16.009Z,39
2023-06-10T08:32:46.935Z,23
2023-06-10T08:35:17.534Z,37
2023-06-10T08:37:49.155Z,26
2023-06-10T08:40:20.296Z,30
2023-06-10T08:42:50.710Z,22
2023-06-10T08:45:21.481Z,24
2023-06-10T08:47:51.894Z,21
2023-06-10T08:50:20.914Z,29
2023-06-10T08:52:51.873Z,24
2023-06-10T08:55:32.272Z,32
2023-06-10T08:57:59.970Z,26
2023-06-10T09:00:38.348Z,32
2023-06-10T09:03:09.680Z,26
2023-06-10T09:05:44.752Z,80
2023-06-10T09:08:18.256Z,20
2023-06-10T09:10:49.531Z,24
2023-06-10T09:13:22.960Z,20
2023-06-10T09:18:32.971Z,30
2023-06-10T09:23:49.622Z,16
2023-06-10T09:26:24.227Z,22
2023-06-10T09:28:55.691Z,24
2023-06-10T09:31:26.733Z,24
2023-06-10T09:33:59.956Z,24
2023-06-10T09:36:46.149Z,18
2023-06-10T09:39:19.050Z,20
2023-06-10T09:41:51.991Z,18
2023-06-10T09:44:34.602Z,18
2023-06-10T09:47:18.208Z,18
2023-06-10T09:49:48.699Z,28
2023-06-10T09:52:24.271Z,20
2023-06-10T09:55:02.204Z,21
2023-06-10T09:57:38.966Z,23
2023-06-10T10:00:10.649Z,21
2023-06-10T10:02:40.985Z,15
2023-06-10T10:05:11.915Z,19
2023-06-10T10:07:43.844Z,17
2023-06-10T10:10:12.956Z,16
2023-06-10T10:12:43.888Z,16
2023-06-10T10:15:14.550Z,15
2023-06-10T10:17:46.548Z,19
2023-06-10T10:20:17.932Z,15
2023-06-10T10:22:48.831Z,19
2023-06-10T10:25:21.113Z,15
2023-06-10T10:27:52.831Z,12
2023-06-10T10:30:23.191Z,15
2023-06-10T10:32:54.266Z,16
2023-06-10T10:35:25.893Z,13
2023-06-10T10:37:59.442Z,15
2023-06-10T10:40:31.086Z,18
2023-06-10T10:43:01.897Z,15
2023-06-10T10:45:32.652Z,11
2023-06-10T10:48:03.420Z,12
2023-06-10T10:50:38.444Z,12
2023-06-10T10:53:14.380Z,15
2023-06-10T10:55:45.283Z,13
2023-06-10T10:58:14.094Z,16
2023-06-10T11:00:52.042Z,16
2023-06-10T11:03:22.848Z,13
2023-06-10T11:05:51.790Z,15
2023-06-10T11:08:22.797Z,13
2023-06-10T11:10:53.617Z,13
2023-06-10T11:13:23.941Z,11
2023-06-10T11:15:55.756Z,14
2023-06-10T11:18:27.448Z,16
2023-06-10T11:20:58.717Z,18
2023-06-10T11:23:29.579Z,11
2023-06-10T11:26:00.845Z,14
2023-06-10T11:28:31.797Z,10
2023-06-10T11:31:02.419Z,17
2023-06-10T11:33:33.174Z,13
2023-06-10T11:36:03.885Z,9
2023-06-10T11:38:34.879Z,15
2023-06-10T11:41:05.798Z,16
2023-06-10T11:43:42.598Z,12
2023-06-10T11:46:12.877Z,15
2023-06-10T11:48:43.460Z,15
2023-06-10T11:51:14.135Z,17
2023-06-10T11:53:44.743Z,13
2023-06-10T11:56:16.674Z,16
2023-06-10T11:58:47.054Z,17
2023-06-10T12:01:28.024Z,13
2023-06-10T12:03:48.340Z,17
2023-06-10T12:06:18.549Z,13
2023-06-10T12:08:49.550Z,13
2023-06-10T12:11:18.519Z,22
2023-06-10T12:13:48.910Z,21
2023-06-10T12:16:19.846Z,20
2023-06-10T12:18:50.181Z,32
2023-06-10T12:21:19.389Z,25
2023-06-10T12:23:49.928Z,23
2023-06-10T12:26:20.635Z,13
2023-06-10T12:28:51.467Z,24
2023-06-10T12:31:22.268Z,17
2023-06-10T12:33:53.015Z,15
2023-06-10T12:36:24.019Z,17
2023-06-10T12:38:55.167Z,23
2023-06-10T12:41:25.950Z,15
2023-06-10T12:43:56.463Z,20
2023-06-10T12:46:27.966Z,27
2023-06-10T12:48:58.462Z,28
2023-06-10T12:51:27.462Z,18
2023-06-10T12:53:57.869Z,21
2023-06-10T12:56:29.624Z,23
2023-06-10T12:59:00.020Z,20
2023-06-10T13:01:30.550Z,16
2023-06-10T13:04:01.160Z,17
2023-06-10T13:06:31.103Z,17
2023-06-10T13:09:01.840Z,25
2023-06-10T13:11:32.578Z,19
2023-06-10T13:14:02.949Z,24
2023-06-10T13:16:34.106Z,19
2023-06-10T13:19:04.881Z,20
2023-06-10T13:21:34.929Z,24
2023-06-10T13:24:07.084Z,16
2023-06-10T13:26:37.517Z,15
2023-06-10T13:29:06.313Z,21
2023-06-10T13:31:37.272Z,15
2023-06-10T13:36:40.208Z,21
2023-06-10T13:39:10.479Z,15
2023-06-10T13:41:40.935Z,19
2023-06-10T13:44:11.435Z,16
2023-06-10T13:46:42.016Z,15
2023-06-10T13:49:11.188Z,16
2023-06-10T13:51:41.468Z,11
2023-06-10T13:54:12.056Z,16
2023-06-10T13:56:42.483Z,9
2023-06-10T13:59:13.059Z,12
2023-06-10T14:01:43.672Z,18
2023-06-10T14:04:14.732Z,11
2023-06-10T14:06:45.071Z,13
2023-06-10T14:09:15.992Z,15
2023-06-10T14:11:46.951Z,9
2023-06-10T14:14:17.329Z,16
2023-06-10T14:16:51.949Z,12
2023-06-10T14:21:59.435Z,12
2023-06-10T14:24:29.912Z,8
2023-06-10T14:27:01.021Z,12
2023-06-10T14:29:31.665Z,11
2023-06-10T14:32:02.753Z,9
2023-06-10T14:34:33.550Z,15
2023-06-10T14:37:03.983Z,8
2023-06-10T14:39:34.387Z,12
2023-06-10T14:42:05.330Z,12
2023-06-10T14:44:41.838Z,8
2023-06-10T14:47:14.977Z,11
2023-06-10T14:49:43.727Z,13
2023-06-10T14:52:14.356Z,12
2023-06-10T14:54:44.760Z,15
2023-06-10T14:57:16.361Z,15
2023-06-10T14:59:46.863Z,16
2023-06-10T15:02:17.724Z,12
2023-06-10T15:04:46.309Z,13
2023-06-10T15:07:16.607Z,13
2023-06-10T15:09:47.148Z,15
2023-06-10T15:12:18.877Z,12
2023-06-10T15:14:50.918Z,12
2023-06-10T15:17:21.952Z,12
2023-06-10T15:19:54.578Z,13
2023-06-10T15:22:26.938Z,9
2023-06-10T15:24:58.265Z,11
2023-06-10T15:27:30.039Z,13
2023-06-10T15:30:00.691Z,12
2023-06-10T15:32:31.199Z,12
2023-06-10T15:35:03.528Z,12
2023-06-10T15:37:32.845Z,13
2023-06-10T15:40:04.705Z,12
2023-06-10T15:42:42.043Z,9
2023-06-10T15:45:15.271Z,12
2023-06-10T15:47:44.498Z,16
2023-06-10T15:50:17.806Z,30
2023-06-10T15:52:50.588Z,9
2023-06-10T15:55:26.055Z,16
2023-06-10T15:57:58.272Z,8
2023-06-10T16:00:28.784Z,15
2023-06-10T16:03:06.304Z,10
2023-06-10T16:05:36.714Z,12
2023-06-10T16:08:07.910Z,12
2023-06-10T16:10:37.866Z,19
2023-06-10T16:13:08.554Z,9
2023-06-10T16:15:38.981Z,27
2023-06-10T16:18:10.480Z,28
2023-06-10T16:20:40.906Z,19
2023-06-10T16:23:09.958Z,18
2023-06-10T16:25:40.652Z,23
2023-06-10T16:28:11.004Z,20
2023-06-10T16:30:41.389Z,16
2023-06-10T16:33:12.147Z,13
2023-06-10T16:35:42.344Z,21
2023-06-10T16:38:13.482Z,16
2023-06-10T16:40:44.132Z,19
2023-06-10T16:43:15.006Z,23
2023-06-10T16:45:45.754Z,16
2023-06-10T16:48:16.176Z,16
2023-06-10T16:50:46.790Z,21
2023-06-10T16:53:17.296Z,19
2023-06-10T16:55:47.924Z,23
2023-06-10T16:58:18.853Z,19
2023-06-10T17:00:49.177Z,36
2023-06-10T17:03:19.932Z,17
2023-06-10T17:05:50.681Z,23
2023-06-10T17:08:21.162Z,23
2023-06-10T17:10:51.379Z,16
2023-06-10T17:13:22.027Z,19
2023-06-10T17:15:52.527Z,27
2023-06-10T17:18:23.527Z,21
2023-06-10T17:20:54.072Z,35
2023-06-10T17:23:24.702Z,28
2023-06-10T17:25:53.968Z,28
2023-06-10T17:28:23.279Z,29
2023-06-10T17:30:54.046Z,20
2023-06-10T17:33:24.496Z,19
2023-06-10T17:35:55.051Z,20
2023-06-10T17:38:26.007Z,20
2023-06-10T17:40:57.087Z,16
2023-06-10T17:43:27.667Z,13
2023-06-10T17:45:58.277Z,16
2023-06-10T17:48:28.792Z,17
2023-06-10T17:50:59.536Z,16
2023-06-10T17:53:30.129Z,13
2023-06-10T17:56:02.142Z,15
2023-06-10T17:58:31.149Z,12
2023-06-10T18:01:01.396Z,13
2023-06-10T18:03:33.749Z,16
2023-06-10T18:06:04.138Z,13
2023-06-10T18:08:33.138Z,17
2023-06-10T18:11:02.151Z,13
2023-06-10T18:13:31.342Z,13
2023-06-10T18:16:00.113Z,14
2023-06-10T18:18:30.439Z,15
2023-06-10T18:21:03.018Z,13
2023-06-10T18:23:31.934Z,16
2023-06-10T18:26:01.101Z,19
2023-06-10T18:28:32.586Z,16
2023-06-10T18:31:02.991Z,21
2023-06-10T18:33:32.018Z,16
2023-06-10T18:36:02.830Z,16
2023-06-10T18:38:34.117Z,15
2023-06-10T18:41:04.702Z,19
2023-06-10T18:43:35.417Z,19
2023-06-10T18:46:05.992Z,17
2023-06-10T18:48:37.157Z,24
2023-06-10T18:51:07.717Z,20
2023-06-10T18:53:37.928Z,20
2023-06-10T18:56:08.322Z,16
2023-06-10T18:58:39.222Z,24
2023-06-10T19:01:09.745Z,23
2023-06-10T19:03:40.079Z,33
2023-06-10T19:06:10.495Z,28
2023-06-10T19:08:42.337Z,28
2023-06-10T19:11:12.575Z,31
2023-06-10T19:13:42.843Z,32
2023-06-10T19:16:13.206Z,36
2023-06-10T19:18:43.825Z,41
2023-06-10T19:21:15.068Z,37
2023-06-10T19:23:47.247Z,38
2023-06-10T19:26:19.357Z,41
2023-06-10T19:28:49.760Z,46
2023-06-10T19:31:20.341Z,31
2023-06-10T19:33:52.613Z,33
2023-06-10T19:36:23.290Z,42
2023-06-10T19:38:54.664Z,33
2023-06-10T19:41:25.486Z,44
2023-06-10T19:43:56.167Z,32
2023-06-10T19:46:27.224Z,37
2023-06-10T19:48:57.606Z,52
2023-06-10T19:51:28.347Z,48
2023-06-10T19:53:58.860Z,40
2023-06-10T19:56:30.290Z,36
2023-06-10T19:59:01.618Z,30
2023-06-10T20:01:32.358Z,44
2023-06-10T20:04:03.731Z,34
2023-06-10T20:06:30.986Z,37
2023-06-10T20:09:01.549Z,42
2023-06-10T20:11:31.926Z,44
2023-06-10T20:14:02.603Z,37
2023-06-10T20:16:33.070Z,40
2023-06-10T20:19:03.945Z,37
2023-06-10T20:21:34.333Z,36
2023-06-10T20:24:05.165Z,39
2023-06-10T20:26:35.642Z,34
2023-06-10T20:29:12.164Z,30
2023-06-10T20:31:42.902Z,29
2023-06-10T20:34:13.459Z,32
2023-06-10T20:36:44.908Z,38
2023-06-10T20:39:15.569Z,29
2023-06-10T20:41:46.244Z,32
2023-06-10T20:44:16.038Z,35
2023-06-10T20:46:50.535Z,30
2023-06-10T20:49:20.877Z,38
2023-06-10T20:51:54.839Z,53
2023-06-10T20:54:28.175Z,54
2023-06-10T20:56:59.685Z,48
2023-06-10T20:59:30.062Z,52
2023-06-10T21:02:00.916Z,41
2023-06-10T21:04:32.231Z,33
2023-06-10T21:07:02.458Z,32
2023-06-10T21:09:32.772Z,31
2023-06-10T21:12:03.411Z,30
2023-06-10T21:14:32.395Z,35
2023-06-10T21:17:04.780Z,33
2023-06-10T21:19:35.697Z,38
2023-06-10T21:22:07.430Z,37
2023-06-10T21:24:40.880Z,36
2023-06-10T21:27:11.392Z,33
2023-06-10T21:29:40.643Z,37
2023-06-10T21:32:10.970Z,34
2023-06-10T21:34:41.559Z,34
2023-06-10T21:37:11.272Z,39
2023-06-10T21:39:41.462Z,33
2023-06-10T21:42:12.232Z,39
2023-06-10T21:44:41.497Z,41
2023-06-10T21:47:12.068Z,57
2023-06-10T21:49:43.043Z,44
2023-06-10T21:52:12.207Z,40
2023-06-10T21:54:43.207Z,40
2023-06-10T21:57:13.587Z,40
2023-06-10T21:59:44.961Z,44
2023-06-10T22:02:15.350Z,40
2023-06-10T22:04:46.337Z,43
2023-06-10T22:07:17.002Z,48
2023-06-10T22:09:47.620Z,60
2023-06-10T22:12:19.487Z,44
2023-06-10T22:14:50.104Z,44
2023-06-10T22:17:21.905Z,60
2023-06-10T22:19:52.641Z,48
2023-06-10T22:22:23.546Z,49
2023-06-10T22:27:32.502Z,46
2023-06-10T22:30:03.177Z,44
2023-06-10T22:32:33.953Z,51
2023-06-10T22:35:04.648Z,48
2023-06-10T22:37:35.450Z,48
2023-06-10T22:40:06.092Z,41
2023-06-10T22:42:36.907Z,40
2023-06-10T22:45:08.037Z,47
2023-06-10T22:47:38.803Z,43
2023-06-10T22:50:09.551Z,46
2023-06-10T22:52:40.816Z,40
2023-06-10T22:55:11.756Z,37
2023-06-10T22:57:43.111Z,36
2023-06-10T23:00:14.038Z,35
2023-06-10T23:02:44.954Z,41
2023-06-10T23:05:15.905Z,41
2023-06-10T23:07:47.171Z,39
2023-06-10T23:10:20.818Z,33
2023-06-10T23:12:52.504Z,44
2023-06-10T23:15:21.430Z,41
2023-06-10T23:17:51.861Z,39
2023-06-10T23:20:22.597Z,45
2023-06-10T23:22:53.282Z,37
2023-06-10T23:25:24.093Z,35
2023-06-10T23:27:55.056Z,36
2023-06-10T23:30:25.755Z,35
2023-06-10T23:32:56.615Z,34
2023-06-10T23:35:27.195Z,41
2023-06-10T23:37:58.056Z,43
2023-06-10T23:40:29.026Z,40
2023-06-10T23:42:59.922Z,38
2023-06-10T23:45:30.993Z,40
2023-06-10T23:48:01.857Z,31
2023-06-10T23:50:32.352Z,36
2023-06-10T23:53:03.229Z,36
2023-06-10T23:55:33.823Z,40
2023-06-10T23:58:04.548Z,35
